createdAt,value
2022-11-13T00:00:37.764Z,42.64
2022-11-13T00:03:04.122Z,42.61
2022-11-13T00:05:30.564Z,42.12
2022-11-13T00:07:57.045Z,42.21
2022-11-13T00:10:23.494Z,42.10
2022-11-13T00:12:49.857Z,42.09
2022-11-13T00:15:16.422Z,42.23
2022-11-13T00:17:42.813Z,41.77
2022-11-13T00:20:09.361Z,41.66
2022-11-13T00:22:35.817Z,41.66
2022-11-13T00:25:02.290Z,41.44
2022-11-13T00:27:31.191Z,41.16
2022-11-13T00:29:57.662Z,41.41
2022-11-13T00:32:24.040Z,41.35
2022-11-13T00:34:50.514Z,41.16
2022-11-13T00:37:16.953Z,41.04
2022-11-13T00:39:43.453Z,41.08
2022-11-13T00:42:10.023Z,41.04
2022-11-13T00:44:36.451Z,40.93
2022-11-13T00:47:02.846Z,40.81
2022-11-13T00:49:29.290Z,41.01
2022-11-13T00:51:55.724Z,40.87
2022-11-13T00:54:22.151Z,40.57
2022-11-13T00:56:48.593Z,40.70
2022-11-13T00:59:15.004Z,40.67
2022-11-13T01:01:41.409Z,40.86
2022-11-13T01:04:07.796Z,40.97
2022-11-13T01:06:34.183Z,40.72
2022-11-13T01:09:00.781Z,40.63
2022-11-13T01:11:29.619Z,40.55
2022-11-13T01:13:56.595Z,40.50
2022-11-13T01:16:28.030Z,40.31
2022-11-13T01:18:55.530Z,40.37
2022-11-13T01:21:24.732Z,40.35
2022-11-13T01:23:51.809Z,40.45
2022-11-13T01:26:28.037Z,40.27
2022-11-13T01:28:55.421Z,40.13
2022-11-13T01:31:25.084Z,40.32
2022-11-13T01:33:52.184Z,40.63
2022-11-13T01:36:27.665Z,40.82
2022-11-13T01:38:55.216Z,41.03
2022-11-13T01:41:31.977Z,41.06
2022-11-13T01:44:00.093Z,41.04
2022-11-13T01:46:31.478Z,41.15
2022-11-13T01:49:09.707Z,41.45
2022-11-13T01:51:50.439Z,41.81
2022-11-13T01:54:21.641Z,41.83
2022-11-13T01:56:49.009Z,42.03
2022-11-13T01:59:28.870Z,41.62
2022-11-13T02:01:56.308Z,41.61
2022-11-13T02:04:23.395Z,42.10
2022-11-13T02:06:54.505Z,41.86
2022-11-13T02:09:35.858Z,41.80
2022-11-13T02:12:05.597Z,42.09
2022-11-13T02:14:32.435Z,42.38
2022-11-13T02:17:02.144Z,42.01
2022-11-13T02:19:35.742Z,41.50
2022-11-13T02:22:28.384Z,41.59
2022-11-13T02:24:58.586Z,41.34
2022-11-13T02:27:30.888Z,41.03
2022-11-13T02:29:57.400Z,41.23
2022-11-13T02:32:23.824Z,41.03
2022-11-13T02:34:50.241Z,41.04
2022-11-13T02:37:16.680Z,40.81
2022-11-13T02:39:43.041Z,41.08
2022-11-13T02:42:09.457Z,40.92
2022-11-13T02:44:35.865Z,40.84
2022-11-13T02:47:02.238Z,40.77
2022-11-13T02:49:28.596Z,41.11
2022-11-13T02:51:55.009Z,41.17
2022-11-13T02:54:21.433Z,41.77
2022-11-13T02:56:47.961Z,41.85
2022-11-13T02:59:14.401Z,41.97
2022-11-13T03:01:40.814Z,42.20
2022-11-13T03:04:07.269Z,42.36
2022-11-13T03:06:33.786Z,42.55
2022-11-13T03:09:00.195Z,42.70
2022-11-13T03:11:26.559Z,42.50
2022-11-13T03:13:53.398Z,42.55
2022-11-13T03:16:19.808Z,42.29
2022-11-13T03:18:46.223Z,42.21
2022-11-13T03:21:14.695Z,42.30
2022-11-13T03:23:42.279Z,42.32
2022-11-13T03:26:11.687Z,42.36
2022-11-13T03:28:38.131Z,42.39
2022-11-13T03:31:05.433Z,42.37
2022-11-13T03:33:31.982Z,42.82
2022-11-13T03:35:58.626Z,42.68
2022-11-13T03:38:25.736Z,42.81
2022-11-13T03:40:52.415Z,42.54
2022-11-13T03:43:19.280Z,42.59
2022-11-13T03:45:47.083Z,42.65
2022-11-13T03:48:14.680Z,42.50
2022-11-13T03:50:46.888Z,42.36
2022-11-13T03:53:13.992Z,42.38
2022-11-13T03:55:41.472Z,42.30
2022-11-13T03:58:08.155Z,42.18
2022-11-13T04:00:35.483Z,42.24
2022-11-13T04:06:10.788Z,41.93
2022-11-13T04:08:37.284Z,41.66
2022-11-13T04:11:09.104Z,41.08
2022-11-13T04:13:35.708Z,41.40
2022-11-13T04:16:02.383Z,41.15
2022-11-13T04:18:29.036Z,41.46
2022-11-13T04:21:03.905Z,40.97
2022-11-13T04:23:31.172Z,41.20
2022-11-13T04:25:58.406Z,41.09
2022-11-13T04:28:24.960Z,41.07
2022-11-13T04:30:54.305Z,40.86
2022-11-13T04:33:20.937Z,41.10
2022-11-13T04:35:48.537Z,41.28
2022-11-13T04:38:15.633Z,40.91
2022-11-13T04:40:42.458Z,40.90
2022-11-13T04:43:09.027Z,41.05
2022-11-13T04:45:36.259Z,40.98
2022-11-13T04:48:05.717Z,40.97
2022-11-13T04:50:32.342Z,41.09
2022-11-13T04:52:58.815Z,41.19
2022-11-13T04:55:25.557Z,41.66
2022-11-13T04:57:55.521Z,41.83
2022-11-13T05:00:22.649Z,41.85
2022-11-13T05:02:49.251Z,41.82
2022-11-13T05:05:15.921Z,41.81
2022-11-13T05:07:42.700Z,41.89
2022-11-13T05:10:09.844Z,41.87
2022-11-13T05:12:36.519Z,42.20
2022-11-13T05:15:03.980Z,41.92
2022-11-13T05:17:30.522Z,41.95
2022-11-13T05:19:57.110Z,41.94
2022-11-13T05:22:23.670Z,41.97
2022-11-13T05:24:50.127Z,42.06
2022-11-13T05:27:17.735Z,42.14
2022-11-13T05:29:44.762Z,42.21
2022-11-13T05:32:11.311Z,42.24
2022-11-13T05:34:38.010Z,42.42
2022-11-13T05:37:04.572Z,42.54
2022-11-13T05:39:30.962Z,42.54
2022-11-13T05:41:57.435Z,42.84
2022-11-13T05:44:23.997Z,42.95
2022-11-13T05:46:50.466Z,42.92
2022-11-13T05:49:17.039Z,43.12
2022-11-13T05:51:43.643Z,43.12
2022-11-13T05:54:11.159Z,43.40
2022-11-13T05:56:37.988Z,43.36
2022-11-13T05:59:05.138Z,43.49
2022-11-13T06:01:35.080Z,43.41
2022-11-13T06:04:02.238Z,43.45
2022-11-13T06:06:30.449Z,43.46
2022-11-13T06:08:58.337Z,43.41
2022-11-13T06:11:26.816Z,43.16
2022-11-13T06:13:54.481Z,43.26
2022-11-13T06:16:27.262Z,42.99
2022-11-13T06:18:59.015Z,42.61
2022-11-13T06:21:28.985Z,42.75
2022-11-13T06:23:57.321Z,42.67
2022-11-13T06:26:26.064Z,42.61
2022-11-13T06:28:52.690Z,42.49
2022-11-13T06:31:22.726Z,42.40
2022-11-13T06:33:50.057Z,42.04
2022-11-13T06:36:19.642Z,41.75
2022-11-13T06:38:47.946Z,41.54
2022-11-13T06:41:16.668Z,41.11
2022-11-13T06:43:44.233Z,41.13
2022-11-13T06:46:14.112Z,40.63
2022-11-13T06:48:40.710Z,40.72
2022-11-13T06:51:09.996Z,40.90
2022-11-13T06:53:36.563Z,40.60
2022-11-13T06:56:06.360Z,40.30
2022-11-13T06:58:33.368Z,40.81
2022-11-13T07:01:14.566Z,40.29
2022-11-13T07:03:41.242Z,40.34
2022-11-13T07:06:13.939Z,39.71
2022-11-13T07:08:44.153Z,39.33
2022-11-13T07:11:13.595Z,39.98
2022-11-13T07:13:40.940Z,39.52
2022-11-13T07:16:16.176Z,39.60
2022-11-13T07:18:43.337Z,39.55
2022-11-13T07:21:12.049Z,39.21
2022-11-13T07:23:43.494Z,39.44
2022-11-13T07:26:11.508Z,39.35
2022-11-13T07:28:38.451Z,40.01
2022-11-13T07:31:05.654Z,40.17
2022-11-13T07:33:32.298Z,40.47
2022-11-13T07:35:59.694Z,40.81
2022-11-13T07:38:26.653Z,41.21
2022-11-13T07:40:53.894Z,41.59
2022-11-13T07:43:20.707Z,41.87
2022-11-13T07:45:47.383Z,42.41
2022-11-13T07:48:13.938Z,42.80
2022-11-13T07:50:40.540Z,42.98
2022-11-13T07:53:08.830Z,43.83
2022-11-13T07:55:36.187Z,44.20
2022-11-13T07:58:04.399Z,44.32
2022-11-13T08:00:33.356Z,44.70
2022-11-13T08:03:09.140Z,45.59
2022-11-13T08:05:36.332Z,45.04
2022-11-13T08:08:04.009Z,45.49
2022-11-13T08:10:30.795Z,45.48
2022-11-13T08:13:00.240Z,45.98
2022-11-13T08:15:27.732Z,45.94
2022-11-13T08:17:58.471Z,46.17
2022-11-13T08:20:26.609Z,46.40
2022-11-13T08:22:53.221Z,46.37
2022-11-13T08:25:20.477Z,46.61
2022-11-13T08:27:47.106Z,46.64
2022-11-13T08:30:14.749Z,46.80
2022-11-13T08:32:41.322Z,46.86
2022-11-13T08:35:08.191Z,46.91
2022-11-13T08:37:34.802Z,47.04
2022-11-13T08:40:01.376Z,47.07
2022-11-13T08:42:28.111Z,47.06
2022-11-13T08:44:54.670Z,47.09
2022-11-13T08:47:23.416Z,47.10
2022-11-13T08:49:53.481Z,47.13
2022-11-13T08:52:20.045Z,47.18
2022-11-13T08:54:46.635Z,47.38
2022-11-13T08:57:13.293Z,47.28
2022-11-13T08:59:39.968Z,47.42
2022-11-13T09:02:06.564Z,47.32
2022-11-13T09:04:33.085Z,47.36
2022-11-13T09:06:59.639Z,47.39
2022-11-13T09:09:26.285Z,47.19
2022-11-13T09:11:52.861Z,47.11
2022-11-13T09:14:19.421Z,46.77
2022-11-13T09:16:45.834Z,46.76
2022-11-13T09:19:12.331Z,47.11
2022-11-13T09:21:38.852Z,46.72
2022-11-13T09:24:06.481Z,46.38
2022-11-13T09:26:34.864Z,46.37
2022-11-13T09:29:01.614Z,46.18
2022-11-13T09:31:28.208Z,46.13
2022-11-13T09:33:54.748Z,46.05
2022-11-13T09:36:21.469Z,45.90
2022-11-13T09:38:48.058Z,45.88
2022-11-13T09:41:19.449Z,46.37
2022-11-13T09:43:58.252Z,46.50
2022-11-13T09:46:40.795Z,46.46
2022-11-13T09:49:16.141Z,45.93
2022-11-13T09:51:51.177Z,45.74
2022-11-13T09:54:18.073Z,45.49
2022-11-13T09:56:59.618Z,45.36
2022-11-13T09:59:39.693Z,45.10
2022-11-13T10:02:22.840Z,45.09
2022-11-13T10:05:07.358Z,44.49
2022-11-13T10:08:03.318Z,44.42
2022-11-13T10:10:55.267Z,44.74
2022-11-13T10:13:28.393Z,44.94
2022-11-13T10:16:03.699Z,45.11
2022-11-13T10:18:35.276Z,45.13
2022-11-13T10:21:23.800Z,45.31
2022-11-13T10:23:56.733Z,44.99
2022-11-13T10:26:27.370Z,45.03
2022-11-13T10:29:02.722Z,44.70
2022-11-13T10:31:29.472Z,44.65
2022-11-13T10:33:57.524Z,44.67
2022-11-13T10:36:54.633Z,44.16
2022-11-13T10:39:21.232Z,44.39
2022-11-13T10:41:53.443Z,44.52
2022-11-13T10:44:23.682Z,44.13
2022-11-13T10:46:50.159Z,44.19
2022-11-13T10:49:29.092Z,44.02
2022-11-13T10:51:57.704Z,44.17
2022-11-13T10:54:27.885Z,44.22
2022-11-13T10:57:03.726Z,44.39
2022-11-13T10:59:41.462Z,44.45
2022-11-13T11:02:20.372Z,44.44
2022-11-13T11:04:47.333Z,45.10
2022-11-13T11:07:21.918Z,45.13
2022-11-13T11:09:50.716Z,44.98
2022-11-13T11:12:30.747Z,43.94
2022-11-13T11:14:58.188Z,44.27
2022-11-13T11:17:50.653Z,41.92
2022-11-13T11:20:26.015Z,42.32
2022-11-13T11:23:00.084Z,39.77
2022-11-13T11:25:41.334Z,38.83
2022-11-13T11:28:46.584Z,38.33
2022-11-13T11:31:37.334Z,37.71
2022-11-13T11:34:44.921Z,37.44
2022-11-13T11:37:17.217Z,34.23
2022-11-13T11:39:50.129Z,33.40
2022-11-13T11:42:28.350Z,32.68
2022-11-13T11:45:15.886Z,32.49
2022-11-13T11:47:43.945Z,32.39
2022-11-13T11:50:47.170Z,32.09
2022-11-13T11:53:27.493Z,31.28
2022-11-13T11:56:09.532Z,31.47
2022-11-13T11:58:58.405Z,31.36
2022-11-13T12:01:50.397Z,31.12
2022-11-13T12:04:42.127Z,30.66
2022-11-13T12:07:38.853Z,30.45
2022-11-13T12:10:27.188Z,29.62
2022-11-13T12:12:59.681Z,28.20
2022-11-13T12:15:26.150Z,31.94
2022-11-13T12:18:17.370Z,28.18
2022-11-13T12:20:56.827Z,27.14
2022-11-13T12:24:01.597Z,27.60
2022-11-13T12:26:47.362Z,26.20
2022-11-13T12:29:19.782Z,25.90
2022-11-13T12:32:04.637Z,25.51
2022-11-13T12:34:59.123Z,26.66
2022-11-13T12:37:38.653Z,26.27
2022-11-13T12:40:19.640Z,26.37
2022-11-13T12:42:46.007Z,26.04
2022-11-13T12:45:27.728Z,27.31
2022-11-13T12:47:54.264Z,26.96
2022-11-13T12:50:20.839Z,27.00
2022-11-13T12:53:01.376Z,27.61
2022-11-13T12:55:34.774Z,27.55
2022-11-13T12:58:32.022Z,28.99
2022-11-13T13:01:10.272Z,28.53
2022-11-13T13:03:49.822Z,28.85
2022-11-13T13:06:37.576Z,28.95
2022-11-13T13:09:33.859Z,29.76
2022-11-13T13:12:17.606Z,30.14
2022-11-13T13:15:12.093Z,30.76
2022-11-13T13:17:39.439Z,30.47
2022-11-13T13:20:49.400Z,31.15
2022-11-13T13:23:27.461Z,31.34
2022-11-13T13:26:03.245Z,31.89
2022-11-13T13:28:31.619Z,31.71
2022-11-13T13:31:13.169Z,31.63
2022-11-13T13:34:03.715Z,32.62
2022-11-13T13:36:49.179Z,33.71
2022-11-13T13:39:21.554Z,34.37
2022-11-13T13:42:06.531Z,35.41
2022-11-13T13:44:41.939Z,36.02
2022-11-13T13:47:23.847Z,35.60
2022-11-13T13:49:52.021Z,35.12
2022-11-13T13:52:26.799Z,34.63
2022-11-13T13:54:53.671Z,34.20
2022-11-13T13:57:20.254Z,33.71
2022-11-13T13:59:46.834Z,33.66
2022-11-13T14:02:18.755Z,33.27
2022-11-13T14:04:47.736Z,32.92
2022-11-13T14:07:33.694Z,32.88
2022-11-13T14:10:13.116Z,32.53
2022-11-13T14:12:44.172Z,32.13
2022-11-13T14:15:30.059Z,31.98
2022-11-13T14:18:09.876Z,31.83
2022-11-13T14:20:45.104Z,32.02
2022-11-13T14:23:22.963Z,32.09
2022-11-13T14:25:50.483Z,32.83
2022-11-13T14:28:19.629Z,32.96
2022-11-13T14:30:54.674Z,32.88
2022-11-13T14:33:30.392Z,32.65
2022-11-13T14:35:58.834Z,32.26
2022-11-13T14:38:29.206Z,32.17
2022-11-13T14:40:56.158Z,31.77
2022-11-13T14:43:29.502Z,32.22
2022-11-13T14:46:01.349Z,32.67
2022-11-13T14:48:35.050Z,33.14
2022-11-13T14:51:07.267Z,33.48
2022-11-13T14:53:35.237Z,33.59
2022-11-13T14:56:04.684Z,34.28
2022-11-13T14:58:40.161Z,35.16
2022-11-13T15:01:22.416Z,35.85
2022-11-13T15:03:50.434Z,35.39
2022-11-13T15:06:22.713Z,36.58
2022-11-13T15:08:53.991Z,36.22
2022-11-13T15:11:22.471Z,36.62
2022-11-13T15:13:50.372Z,36.98
2022-11-13T15:16:23.799Z,37.99
2022-11-13T15:19:02.761Z,38.22
2022-11-13T15:21:30.162Z,37.95
2022-11-13T15:23:57.079Z,38.35
2022-11-13T15:26:24.310Z,38.54
2022-11-13T15:28:50.905Z,38.99
2022-11-13T15:31:32.610Z,39.67
2022-11-13T15:33:59.056Z,39.13
2022-11-13T15:36:26.201Z,39.36
2022-11-13T15:38:52.717Z,39.69
2022-11-13T15:41:24.634Z,40.79
2022-11-13T15:43:53.610Z,40.60
2022-11-13T15:46:22.346Z,40.44
2022-11-13T15:48:49.626Z,40.78
2022-11-13T15:51:48.378Z,41.59
2022-11-13T15:54:22.278Z,41.45
2022-11-13T15:56:48.778Z,41.12
2022-11-13T15:59:15.489Z,41.24
2022-11-13T16:01:42.283Z,41.45
2022-11-13T16:07:29.397Z,42.24
2022-11-13T16:09:56.027Z,41.71
2022-11-13T16:12:22.530Z,42.02
2022-11-13T16:14:49.093Z,42.27
2022-11-13T16:17:20.285Z,42.71
2022-11-13T16:19:52.876Z,43.21
2022-11-13T16:22:21.071Z,43.02
2022-11-13T16:24:47.589Z,42.66
2022-11-13T16:27:22.612Z,43.37
2022-11-13T16:29:49.144Z,43.12
2022-11-13T16:32:16.761Z,43.42
2022-11-13T16:34:44.575Z,43.52
2022-11-13T16:37:19.053Z,44.76
2022-11-13T16:39:45.685Z,43.73
2022-11-13T16:42:13.546Z,43.95
2022-11-13T16:44:40.449Z,44.16
2022-11-13T16:47:17.622Z,44.35
2022-11-13T16:49:44.066Z,44.35
2022-11-13T16:52:10.528Z,44.62
2022-11-13T16:54:37.019Z,44.76
2022-11-13T16:57:03.584Z,44.58
2022-11-13T16:59:30.096Z,45.09
2022-11-13T17:01:57.075Z,45.23
2022-11-13T17:04:23.581Z,45.40
2022-11-13T17:06:51.464Z,45.35
2022-11-13T17:09:20.690Z,45.69
2022-11-13T17:11:47.197Z,45.94
2022-11-13T17:14:13.945Z,46.08
2022-11-13T17:16:40.361Z,46.27
2022-11-13T17:19:06.962Z,46.42
2022-11-13T17:21:33.453Z,46.60
2022-11-13T17:24:02.635Z,46.98
2022-11-13T17:26:31.269Z,47.02
2022-11-13T17:28:59.849Z,47.09
2022-11-13T17:31:26.758Z,47.22
2022-11-13T17:33:54.217Z,47.51
2022-11-13T17:36:21.686Z,47.71
2022-11-13T17:38:48.272Z,47.59
2022-11-13T17:41:16.454Z,48.11
2022-11-13T17:43:43.326Z,47.89
2022-11-13T17:46:12.903Z,48.45
2022-11-13T17:48:39.882Z,48.20
2022-11-13T17:51:08.214Z,48.24
2022-11-13T17:53:34.887Z,48.55
2022-11-13T17:56:04.899Z,48.96
2022-11-13T17:58:37.582Z,49.86
2022-11-13T18:01:06.733Z,49.00
2022-11-13T18:03:33.827Z,48.90
2022-11-13T18:06:08.408Z,50.36
2022-11-13T18:08:37.482Z,49.23
2022-11-13T18:11:09.043Z,50.57
2022-11-13T18:13:36.400Z,49.65
2022-11-13T18:16:05.540Z,49.83
2022-11-13T18:18:32.120Z,49.89
2022-11-13T18:20:59.302Z,50.12
2022-11-13T18:23:26.529Z,50.39
2022-11-13T18:25:53.189Z,50.58
2022-11-13T18:28:19.784Z,50.86
2022-11-13T18:30:46.289Z,50.82
2022-11-13T18:33:13.017Z,51.20
2022-11-13T18:35:39.561Z,51.06
2022-11-13T18:38:06.109Z,51.26
2022-11-13T18:40:32.626Z,51.52
2022-11-13T18:42:59.119Z,51.50
2022-11-13T18:45:25.585Z,51.77
2022-11-13T18:47:52.079Z,51.75
2022-11-13T18:50:18.657Z,52.04
2022-11-13T18:52:45.205Z,52.23
2022-11-13T18:55:11.818Z,52.39
2022-11-13T18:57:38.296Z,52.46
2022-11-13T19:00:05.326Z,52.40
2022-11-13T19:02:31.818Z,52.51
2022-11-13T19:04:58.266Z,52.68
2022-11-13T19:07:24.879Z,52.83
2022-11-13T19:09:51.429Z,52.92
2022-11-13T19:12:18.031Z,52.79
2022-11-13T19:14:44.535Z,53.01
2022-11-13T19:17:11.126Z,53.33
2022-11-13T19:19:37.884Z,53.23
2022-11-13T19:22:04.274Z,53.18
2022-11-13T19:24:30.994Z,53.19
2022-11-13T19:26:57.545Z,53.35
2022-11-13T19:29:24.176Z,53.49
2022-11-13T19:31:53.584Z,53.61
2022-11-13T19:34:20.116Z,53.63
2022-11-13T19:36:49.454Z,53.65
2022-11-13T19:39:16.833Z,53.62
2022-11-13T19:41:43.448Z,53.55
2022-11-13T19:44:09.982Z,53.88
2022-11-13T19:46:36.516Z,53.91
2022-11-13T19:49:03.186Z,53.74
2022-11-13T19:51:29.666Z,54.12
2022-11-13T19:53:58.440Z,54.25
2022-11-13T19:56:27.026Z,54.27
2022-11-13T19:58:53.833Z,54.04
2022-11-13T20:01:23.780Z,54.60
2022-11-13T20:03:58.149Z,55.86
2022-11-13T20:06:26.205Z,54.26
2022-11-13T20:08:52.798Z,54.49
2022-11-13T20:11:19.353Z,54.11
2022-11-13T20:13:46.342Z,54.29
2022-11-13T20:16:15.581Z,54.51
2022-11-13T20:18:43.491Z,54.38
2022-11-13T20:21:10.522Z,54.26
2022-11-13T20:23:37.127Z,54.40
2022-11-13T20:26:06.407Z,54.55
2022-11-13T20:28:33.328Z,54.55
2022-11-13T20:31:03.762Z,55.33
2022-11-13T20:33:32.929Z,54.81
2022-11-13T20:35:59.425Z,54.55
2022-11-13T20:38:26.207Z,54.82
2022-11-13T20:40:52.856Z,54.79
2022-11-13T20:43:19.462Z,54.82
2022-11-13T20:45:46.017Z,54.90
2022-11-13T20:48:12.634Z,55.19
2022-11-13T20:50:39.297Z,55.19
2022-11-13T20:53:05.909Z,55.08
2022-11-13T20:55:32.522Z,55.50
2022-11-13T20:57:59.038Z,55.33
2022-11-13T21:00:25.725Z,55.45
2022-11-13T21:02:52.272Z,55.32
2022-11-13T21:05:18.755Z,55.36
2022-11-13T21:07:45.379Z,55.41
2022-11-13T21:10:11.910Z,55.48
2022-11-13T21:12:38.472Z,55.44
2022-11-13T21:15:05.499Z,55.75
2022-11-13T21:17:32.052Z,55.50
2022-11-13T21:19:58.591Z,55.22
2022-11-13T21:22:25.139Z,55.89
2022-11-13T21:24:51.687Z,55.75
2022-11-13T21:27:18.170Z,55.73
2022-11-13T21:29:44.764Z,55.84
2022-11-13T21:32:11.311Z,56.03
2022-11-13T21:34:38.299Z,55.88
2022-11-13T21:37:04.835Z,55.86
2022-11-13T21:39:31.487Z,55.88
2022-11-13T21:41:58.012Z,55.75
2022-11-13T21:44:24.573Z,55.96
2022-11-13T21:46:51.162Z,55.91
2022-11-13T21:49:17.697Z,56.04
2022-11-13T21:51:44.349Z,56.08
2022-11-13T21:54:11.056Z,56.00
2022-11-13T21:56:38.917Z,56.36
2022-11-13T21:59:06.868Z,56.37
2022-11-13T22:01:38.369Z,56.21
2022-11-13T22:04:06.187Z,56.13
2022-11-13T22:06:36.387Z,56.42
2022-11-13T22:09:07.887Z,57.54
2022-11-13T22:11:36.114Z,56.50
2022-11-13T22:14:03.298Z,56.29
2022-11-13T22:16:32.816Z,56.63
2022-11-13T22:19:03.479Z,56.73
2022-11-13T22:21:31.052Z,56.69
2022-11-13T22:23:58.800Z,56.72
2022-11-13T22:26:26.575Z,56.51
2022-11-13T22:28:54.212Z,56.28
2022-11-13T22:31:28.607Z,57.71
2022-11-13T22:33:55.624Z,56.36
2022-11-13T22:36:27.419Z,57.67
2022-11-13T22:38:54.553Z,56.62
2022-11-13T22:41:29.295Z,57.76
2022-11-13T22:43:59.753Z,57.30
2022-11-13T22:46:29.468Z,56.75
2022-11-13T22:48:57.126Z,56.70
2022-11-13T22:51:29.713Z,57.86
2022-11-13T22:54:01.480Z,57.94
2022-11-13T22:56:30.140Z,57.09
2022-11-13T22:58:59.342Z,56.92
2022-11-13T23:01:28.153Z,57.03
2022-11-13T23:03:55.941Z,57.04
2022-11-13T23:06:24.806Z,57.33
2022-11-13T23:08:51.873Z,57.04
2022-11-13T23:11:30.342Z,58.27
2022-11-13T23:13:58.799Z,57.33
2022-11-13T23:16:26.827Z,57.17
2022-11-13T23:18:55.781Z,57.47
2022-11-13T23:21:22.698Z,57.19
2022-11-13T23:23:49.255Z,57.16
2022-11-13T23:26:16.724Z,56.94
2022-11-13T23:28:43.487Z,57.52
2022-11-13T23:31:10.459Z,57.43
2022-11-13T23:33:38.074Z,57.71
2022-11-13T23:36:05.747Z,57.62
2022-11-13T23:38:32.483Z,57.41
2022-11-13T23:41:01.011Z,57.46
2022-11-13T23:43:47.749Z,57.69
2022-11-13T23:46:15.715Z,57.61
2022-11-13T23:48:42.400Z,57.74
2022-11-13T23:51:09.379Z,57.44
2022-11-13T23:53:35.946Z,57.50
2022-11-13T23:56:02.509Z,57.56
2022-11-13T23:58:30.459Z,57.47
